sensor_id;sensor_type;location;lat;lon;timestamp;P1;durP1;ratioP1;P2;durP2;ratioP2
18612;SDS011;9436;52.152;21.032;2022-09-24T00:02:07;19.33;;;15.80;;
18612;SDS011;9436;52.152;21.032;2022-09-24T00:04:35;20.23;;;16.40;;
18612;SDS011;9436;52.152;21.032;2022-09-24T00:07:02;19.40;;;15.50;;
18612;SDS011;9436;52.152;21.032;2022-09-24T00:09:29;18.77;;;16.23;;
18612;SDS011;9436;52.152;21.032;2022-09-24T00:11:56;19.70;;;16.27;;
18612;SDS011;9436;52.152;21.032;2022-09-24T00:14:24;20.87;;;16.07;;
18612;SDS011;9436;52.152;21.032;2022-09-24T00:16:53;20.27;;;16.10;;
18612;SDS011;9436;52.152;21.032;2022-09-24T00:19:19;20.10;;;16.07;;
18612;SDS011;9436;52.152;21.032;2022-09-24T00:21:47;20.20;;;16.23;;
18612;SDS011;9436;52.152;21.032;2022-09-24T00:24:15;17.93;;;14.73;;
18612;SDS011;9436;52.152;21.032;2022-09-24T00:26:56;19.70;;;15.93;;
18612;SDS011;9436;52.152;21.032;2022-09-24T00:29:24;20.57;;;17.17;;
18612;SDS011;9436;52.152;21.032;2022-09-24T00:31:52;18.87;;;16.63;;
18612;SDS011;9436;52.152;21.032;2022-09-24T00:34:20;20.00;;;16.30;;
18612;SDS011;9436;52.152;21.032;2022-09-24T00:36:47;22.00;;;16.77;;
18612;SDS011;9436;52.152;21.032;2022-09-24T00:39:14;21.50;;;17.37;;
18612;SDS011;9436;52.152;21.032;2022-09-24T00:41:41;20.17;;;17.53;;
18612;SDS011;9436;52.152;21.032;2022-09-24T00:47:17;19.80;;;16.90;;
18612;SDS011;9436;52.152;21.032;2022-09-24T00:50:03;22.50;;;17.33;;
18612;SDS011;9436;52.152;21.032;2022-09-24T00:52:36;21.77;;;18.43;;
18612;SDS011;9436;52.152;21.032;2022-09-24T00:55:06;20.97;;;18.67;;
18612;SDS011;9436;52.152;21.032;2022-09-24T00:57:34;22.03;;;18.73;;
18612;SDS011;9436;52.152;21.032;2022-09-24T01:00:04;21.20;;;18.90;;
18612;SDS011;9436;52.152;21.032;2022-09-24T01:02:33;23.67;;;20.23;;
18612;SDS011;9436;52.152;21.032;2022-09-24T01:05:02;23.97;;;20.30;;
18612;SDS011;9436;52.152;21.032;2022-09-24T01:07:30;23.23;;;20.53;;
18612;SDS011;9436;52.152;21.032;2022-09-24T01:09:57;23.97;;;20.23;;
18612;SDS011;9436;52.152;21.032;2022-09-24T01:12:25;23.50;;;21.00;;
18612;SDS011;9436;52.152;21.032;2022-09-24T01:15:06;23.67;;;20.67;;
18612;SDS011;9436;52.152;21.032;2022-09-24T01:17:44;23.90;;;20.43;;
18612;SDS011;9436;52.152;21.032;2022-09-24T01:26:16;24.50;;;20.17;;
18612;SDS011;9436;52.152;21.032;2022-09-24T01:28:56;22.03;;;19.67;;
18612;SDS011;9436;52.152;21.032;2022-09-24T01:31:32;23.27;;;20.00;;
18612;SDS011;9436;52.152;21.032;2022-09-24T01:34:05;22.80;;;20.03;;
18612;SDS011;9436;52.152;21.032;2022-09-24T01:36:34;24.33;;;20.53;;
18612;SDS011;9436;52.152;21.032;2022-09-24T01:39:03;23.60;;;21.10;;
18612;SDS011;9436;52.152;21.032;2022-09-24T01:41:33;24.67;;;21.57;;
18612;SDS011;9436;52.152;21.032;2022-09-24T01:44:02;23.57;;;20.87;;
18612;SDS011;9436;52.152;21.032;2022-09-24T01:46:33;24.40;;;20.60;;
18612;SDS011;9436;52.152;21.032;2022-09-24T01:49:03;27.57;;;20.40;;
18612;SDS011;9436;52.152;21.032;2022-09-24T01:51:32;23.83;;;20.27;;
18612;SDS011;9436;52.152;21.032;2022-09-24T01:54:04;27.63;;;21.17;;
18612;SDS011;9436;52.152;21.032;2022-09-24T01:56:37;22.43;;;20.03;;
18612;SDS011;9436;52.152;21.032;2022-09-24T01:59:08;23.33;;;20.27;;
18612;SDS011;9436;52.152;21.032;2022-09-24T02:01:45;23.27;;;20.77;;
18612;SDS011;9436;52.152;21.032;2022-09-24T02:04:18;23.40;;;20.10;;
18612;SDS011;9436;52.152;21.032;2022-09-24T02:06:48;23.03;;;19.93;;
18612;SDS011;9436;52.152;21.032;2022-09-24T02:09:30;21.80;;;18.97;;
18612;SDS011;9436;52.152;21.032;2022-09-24T02:11:59;20.60;;;17.80;;
18612;SDS011;9436;52.152;21.032;2022-09-24T02:14:33;21.30;;;19.00;;
18612;SDS011;9436;52.152;21.032;2022-09-24T02:17:05;23.83;;;18.87;;
18612;SDS011;9436;52.152;21.032;2022-09-24T02:19:33;21.53;;;18.30;;
18612;SDS011;9436;52.152;21.032;2022-09-24T02:22:03;21.13;;;18.23;;
18612;SDS011;9436;52.152;21.032;2022-09-24T02:24:33;22.17;;;18.37;;
18612;SDS011;9436;52.152;21.032;2022-09-24T02:27:07;22.43;;;19.13;;
18612;SDS011;9436;52.152;21.032;2022-09-24T02:29:34;22.27;;;17.47;;
18612;SDS011;9436;52.152;21.032;2022-09-24T02:32:02;20.83;;;17.30;;
18612;SDS011;9436;52.152;21.032;2022-09-24T02:34:33;20.07;;;16.77;;
18612;SDS011;9436;52.152;21.032;2022-09-24T02:37:04;21.07;;;17.27;;
18612;SDS011;9436;52.152;21.032;2022-09-24T02:39:32;21.43;;;17.00;;
18612;SDS011;9436;52.152;21.032;2022-09-24T02:42:00;18.43;;;16.33;;
18612;SDS011;9436;52.152;21.032;2022-09-24T02:44:29;18.20;;;16.13;;
18612;SDS011;9436;52.152;21.032;2022-09-24T02:46:56;21.20;;;16.90;;
18612;SDS011;9436;52.152;21.032;2022-09-24T02:49:24;19.07;;;15.60;;
18612;SDS011;9436;52.152;21.032;2022-09-24T02:51:52;22.47;;;16.27;;
18612;SDS011;9436;52.152;21.032;2022-09-24T02:54:19;19.57;;;16.40;;
18612;SDS011;9436;52.152;21.032;2022-09-24T02:56:48;18.97;;;16.10;;
18612;SDS011;9436;52.152;21.032;2022-09-24T02:59:15;18.03;;;15.07;;
18612;SDS011;9436;52.152;21.032;2022-09-24T03:01:43;18.00;;;16.10;;
18612;SDS011;9436;52.152;21.032;2022-09-24T03:04:10;19.70;;;15.90;;
18612;SDS011;9436;52.152;21.032;2022-09-24T03:06:38;17.87;;;15.93;;
18612;SDS011;9436;52.152;21.032;2022-09-24T03:09:06;18.17;;;15.83;;
18612;SDS011;9436;52.152;21.032;2022-09-24T03:11:33;18.57;;;15.43;;
18612;SDS011;9436;52.152;21.032;2022-09-24T03:14:00;20.40;;;16.13;;
18612;SDS011;9436;52.152;21.032;2022-09-24T03:16:27;19.73;;;16.50;;
18612;SDS011;9436;52.152;21.032;2022-09-24T03:18:54;19.87;;;15.63;;
18612;SDS011;9436;52.152;21.032;2022-09-24T03:21:21;19.57;;;15.83;;
18612;SDS011;9436;52.152;21.032;2022-09-24T03:23:48;17.83;;;15.50;;
18612;SDS011;9436;52.152;21.032;2022-09-24T03:26:17;16.60;;;14.43;;
18612;SDS011;9436;52.152;21.032;2022-09-24T03:28:44;18.23;;;15.47;;
18612;SDS011;9436;52.152;21.032;2022-09-24T03:31:11;18.10;;;15.10;;
18612;SDS011;9436;52.152;21.032;2022-09-24T03:33:39;20.27;;;16.27;;
18612;SDS011;9436;52.152;21.032;2022-09-24T03:36:08;17.53;;;15.40;;
18612;SDS011;9436;52.152;21.032;2022-09-24T03:38:37;18.40;;;15.77;;
18612;SDS011;9436;52.152;21.032;2022-09-24T03:41:05;19.87;;;15.37;;
18612;SDS011;9436;52.152;21.032;2022-09-24T03:43:35;17.57;;;15.20;;
18612;SDS011;9436;52.152;21.032;2022-09-24T03:46:02;17.17;;;15.30;;
18612;SDS011;9436;52.152;21.032;2022-09-24T03:48:31;20.80;;;15.53;;
18612;SDS011;9436;52.152;21.032;2022-09-24T03:51:01;19.10;;;15.33;;
18612;SDS011;9436;52.152;21.032;2022-09-24T03:53:29;18.23;;;15.10;;
18612;SDS011;9436;52.152;21.032;2022-09-24T03:55:56;17.60;;;15.07;;
18612;SDS011;9436;52.152;21.032;2022-09-24T03:58:26;17.60;;;15.17;;
18612;SDS011;9436;52.152;21.032;2022-09-24T04:00:57;16.73;;;14.50;;
18612;SDS011;9436;52.152;21.032;2022-09-24T04:03:24;17.53;;;15.57;;
18612;SDS011;9436;52.152;21.032;2022-09-24T04:05:51;19.23;;;15.43;;
18612;SDS011;9436;52.152;21.032;2022-09-24T04:08:19;16.57;;;14.77;;
18612;SDS011;9436;52.152;21.032;2022-09-24T04:10:48;16.63;;;14.33;;
18612;SDS011;9436;52.152;21.032;2022-09-24T04:13:16;17.13;;;15.37;;
18612;SDS011;9436;52.152;21.032;2022-09-24T04:15:44;18.53;;;15.23;;
18612;SDS011;9436;52.152;21.032;2022-09-24T04:18:13;20.07;;;16.33;;
18612;SDS011;9436;52.152;21.032;2022-09-24T04:20:40;20.73;;;16.53;;
18612;SDS011;9436;52.152;21.032;2022-09-24T04:23:08;20.00;;;16.53;;
18612;SDS011;9436;52.152;21.032;2022-09-24T04:25:35;20.33;;;16.13;;
18612;SDS011;9436;52.152;21.032;2022-09-24T04:28:05;20.03;;;16.60;;
18612;SDS011;9436;52.152;21.032;2022-09-24T04:30:34;21.87;;;16.57;;
18612;SDS011;9436;52.152;21.032;2022-09-24T04:33:02;19.60;;;16.67;;
18612;SDS011;9436;52.152;21.032;2022-09-24T04:35:31;18.90;;;16.27;;
18612;SDS011;9436;52.152;21.032;2022-09-24T04:38:00;22.00;;;16.00;;
18612;SDS011;9436;52.152;21.032;2022-09-24T04:40:27;19.63;;;16.27;;
18612;SDS011;9436;52.152;21.032;2022-09-24T04:42:55;20.33;;;15.50;;
18612;SDS011;9436;52.152;21.032;2022-09-24T04:45:22;18.67;;;15.37;;
18612;SDS011;9436;52.152;21.032;2022-09-24T04:47:50;19.33;;;15.00;;
18612;SDS011;9436;52.152;21.032;2022-09-24T04:50:22;18.87;;;15.50;;
18612;SDS011;9436;52.152;21.032;2022-09-24T04:52:51;19.47;;;16.07;;
18612;SDS011;9436;52.152;21.032;2022-09-24T04:55:18;19.40;;;16.13;;
18612;SDS011;9436;52.152;21.032;2022-09-24T04:57:45;20.30;;;15.27;;
18612;SDS011;9436;52.152;21.032;2022-09-24T05:00:14;19.10;;;15.20;;
18612;SDS011;9436;52.152;21.032;2022-09-24T05:02:43;19.33;;;15.23;;
18612;SDS011;9436;52.152;21.032;2022-09-24T05:05:10;20.27;;;16.30;;
18612;SDS011;9436;52.152;21.032;2022-09-24T05:07:38;20.43;;;15.87;;
18612;SDS011;9436;52.152;21.032;2022-09-24T05:10:08;19.10;;;15.73;;
18612;SDS011;9436;52.152;21.032;2022-09-24T05:12:35;18.13;;;15.50;;
18612;SDS011;9436;52.152;21.032;2022-09-24T05:15:02;21.13;;;16.63;;
18612;SDS011;9436;52.152;21.032;2022-09-24T05:17:30;20.30;;;15.80;;
18612;SDS011;9436;52.152;21.032;2022-09-24T05:19:57;19.67;;;15.57;;
18612;SDS011;9436;52.152;21.032;2022-09-24T05:22:25;19.80;;;15.60;;
18612;SDS011;9436;52.152;21.032;2022-09-24T05:24:52;18.73;;;15.70;;
18612;SDS011;9436;52.152;21.032;2022-09-24T05:27:21;19.07;;;15.83;;
18612;SDS011;9436;52.152;21.032;2022-09-24T05:29:47;20.73;;;15.80;;
18612;SDS011;9436;52.152;21.032;2022-09-24T05:32:15;17.23;;;15.13;;
18612;SDS011;9436;52.152;21.032;2022-09-24T05:34:44;18.97;;;15.67;;
18612;SDS011;9436;52.152;21.032;2022-09-24T05:37:12;17.30;;;14.00;;
18612;SDS011;9436;52.152;21.032;2022-09-24T05:39:40;19.53;;;14.50;;
18612;SDS011;9436;52.152;21.032;2022-09-24T05:42:08;17.83;;;14.00;;
18612;SDS011;9436;52.152;21.032;2022-09-24T05:44:40;16.80;;;13.53;;
18612;SDS011;9436;52.152;21.032;2022-09-24T05:47:07;17.03;;;14.00;;
18612;SDS011;9436;52.152;21.032;2022-09-24T05:49:34;15.17;;;13.43;;
18612;SDS011;9436;52.152;21.032;2022-09-24T05:52:02;16.73;;;13.20;;
18612;SDS011;9436;52.152;21.032;2022-09-24T05:54:29;16.20;;;13.60;;
18612;SDS011;9436;52.152;21.032;2022-09-24T05:56:56;16.63;;;14.03;;
18612;SDS011;9436;52.152;21.032;2022-09-24T05:59:23;15.00;;;13.30;;
18612;SDS011;9436;52.152;21.032;2022-09-24T06:01:52;14.27;;;12.77;;
18612;SDS011;9436;52.152;21.032;2022-09-24T06:04:19;14.67;;;13.00;;
18612;SDS011;9436;52.152;21.032;2022-09-24T06:06:46;16.27;;;13.00;;
18612;SDS011;9436;52.152;21.032;2022-09-24T06:09:14;15.20;;;12.87;;
18612;SDS011;9436;52.152;21.032;2022-09-24T06:11:41;14.77;;;12.33;;
18612;SDS011;9436;52.152;21.032;2022-09-24T06:14:08;14.73;;;12.53;;
18612;SDS011;9436;52.152;21.032;2022-09-24T06:16:36;15.23;;;12.33;;
18612;SDS011;9436;52.152;21.032;2022-09-24T06:19:04;13.20;;;11.77;;
18612;SDS011;9436;52.152;21.032;2022-09-24T06:21:31;12.20;;;10.93;;
18612;SDS011;9436;52.152;21.032;2022-09-24T06:23:58;13.50;;;11.70;;
18612;SDS011;9436;52.152;21.032;2022-09-24T06:26:27;12.50;;;11.30;;
18612;SDS011;9436;52.152;21.032;2022-09-24T06:28:55;12.13;;;10.43;;
18612;SDS011;9436;52.152;21.032;2022-09-24T06:31:22;11.33;;;9.97;;
18612;SDS011;9436;52.152;21.032;2022-09-24T06:33:49;11.23;;;10.00;;
18612;SDS011;9436;52.152;21.032;2022-09-24T06:36:17;10.30;;;9.30;;
18612;SDS011;9436;52.152;21.032;2022-09-24T06:38:44;11.37;;;9.27;;
18612;SDS011;9436;52.152;21.032;2022-09-24T06:41:16;11.17;;;10.07;;
18612;SDS011;9436;52.152;21.032;2022-09-24T06:43:43;11.53;;;9.10;;
18612;SDS011;9436;52.152;21.032;2022-09-24T06:46:10;9.60;;;8.60;;
18612;SDS011;9436;52.152;21.032;2022-09-24T06:48:38;9.63;;;8.37;;
18612;SDS011;9436;52.152;21.032;2022-09-24T06:51:05;9.77;;;8.77;;
18612;SDS011;9436;52.152;21.032;2022-09-24T06:53:34;10.00;;;8.97;;
18612;SDS011;9436;52.152;21.032;2022-09-24T06:56:01;10.40;;;8.97;;
18612;SDS011;9436;52.152;21.032;2022-09-24T06:58:28;10.10;;;9.10;;
18612;SDS011;9436;52.152;21.032;2022-09-24T07:00:56;11.30;;;8.93;;
18612;SDS011;9436;52.152;21.032;2022-09-24T07:03:26;9.83;;;8.80;;
18612;SDS011;9436;52.152;21.032;2022-09-24T07:05:54;10.50;;;9.40;;
18612;SDS011;9436;52.152;21.032;2022-09-24T07:08:25;9.13;;;8.13;;
18612;SDS011;9436;52.152;21.032;2022-09-24T07:10:53;9.80;;;8.60;;
18612;SDS011;9436;52.152;21.032;2022-09-24T07:13:20;12.33;;;11.03;;
18612;SDS011;9436;52.152;21.032;2022-09-24T07:15:47;14.87;;;12.90;;
18612;SDS011;9436;52.152;21.032;2022-09-24T07:18:16;16.03;;;14.03;;
18612;SDS011;9436;52.152;21.032;2022-09-24T07:20:49;15.77;;;13.53;;
18612;SDS011;9436;52.152;21.032;2022-09-24T07:23:17;14.97;;;13.47;;
18612;SDS011;9436;52.152;21.032;2022-09-24T07:25:44;15.63;;;13.03;;
18612;SDS011;9436;52.152;21.032;2022-09-24T07:28:13;15.03;;;13.47;;
18612;SDS011;9436;52.152;21.032;2022-09-24T07:30:40;14.07;;;12.67;;
18612;SDS011;9436;52.152;21.032;2022-09-24T07:33:07;14.83;;;12.40;;
18612;SDS011;9436;52.152;21.032;2022-09-24T07:35:35;15.63;;;11.33;;
18612;SDS011;9436;52.152;21.032;2022-09-24T07:38:04;12.23;;;10.90;;
18612;SDS011;9436;52.152;21.032;2022-09-24T07:40:32;12.47;;;11.27;;
18612;SDS011;9436;52.152;21.032;2022-09-24T07:43:00;12.77;;;11.37;;
18612;SDS011;9436;52.152;21.032;2022-09-24T07:45:28;13.23;;;11.90;;
18612;SDS011;9436;52.152;21.032;2022-09-24T07:47:57;13.87;;;11.43;;
18612;SDS011;9436;52.152;21.032;2022-09-24T07:50:26;12.47;;;11.07;;
18612;SDS011;9436;52.152;21.032;2022-09-24T07:52:55;15.43;;;11.93;;
18612;SDS011;9436;52.152;21.032;2022-09-24T07:55:22;12.93;;;11.13;;
18612;SDS011;9436;52.152;21.032;2022-09-24T07:57:50;11.73;;;10.37;;
18612;SDS011;9436;52.152;21.032;2022-09-24T08:00:19;11.73;;;10.53;;
18612;SDS011;9436;52.152;21.032;2022-09-24T08:02:48;13.20;;;11.77;;
18612;SDS011;9436;52.152;21.032;2022-09-24T08:05:17;13.40;;;10.87;;
18612;SDS011;9436;52.152;21.032;2022-09-24T08:07:49;12.20;;;11.00;;
18612;SDS011;9436;52.152;21.032;2022-09-24T08:10:16;13.37;;;10.73;;
18612;SDS011;9436;52.152;21.032;2022-09-24T08:12:44;14.17;;;11.07;;
18612;SDS011;9436;52.152;21.032;2022-09-24T08:15:11;12.07;;;10.87;;
18612;SDS011;9436;52.152;21.032;2022-09-24T08:17:38;11.60;;;10.00;;
18612;SDS011;9436;52.152;21.032;2022-09-24T08:20:07;10.40;;;9.30;;
18612;SDS011;9436;52.152;21.032;2022-09-24T08:22:36;10.67;;;9.37;;
18612;SDS011;9436;52.152;21.032;2022-09-24T08:25:03;10.60;;;8.90;;
18612;SDS011;9436;52.152;21.032;2022-09-24T08:27:30;10.17;;;9.13;;
18612;SDS011;9436;52.152;21.032;2022-09-24T08:30:00;9.57;;;8.20;;
18612;SDS011;9436;52.152;21.032;2022-09-24T08:32:27;8.93;;;8.10;;
18612;SDS011;9436;52.152;21.032;2022-09-24T08:34:54;8.50;;;7.70;;
18612;SDS011;9436;52.152;21.032;2022-09-24T08:37:22;8.10;;;7.30;;
18612;SDS011;9436;52.152;21.032;2022-09-24T08:39:50;9.57;;;7.13;;
18612;SDS011;9436;52.152;21.032;2022-09-24T08:42:22;8.43;;;7.57;;
18612;SDS011;9436;52.152;21.032;2022-09-24T08:44:58;9.13;;;8.17;;
18612;SDS011;9436;52.152;21.032;2022-09-24T08:47:45;10.20;;;7.03;;
18612;SDS011;9436;52.152;21.032;2022-09-24T08:50:16;6.17;;;5.53;;
18612;SDS011;9436;52.152;21.032;2022-09-24T08:52:49;6.70;;;6.10;;
18612;SDS011;9436;52.152;21.032;2022-09-24T08:55:34;7.10;;;6.43;;
18612;SDS011;9436;52.152;21.032;2022-09-24T08:58:22;5.73;;;5.10;;
18612;SDS011;9436;52.152;21.032;2022-09-24T09:00:58;5.77;;;4.90;;
18612;SDS011;9436;52.152;21.032;2022-09-24T09:03:34;6.27;;;5.67;;
18612;SDS011;9436;52.152;21.032;2022-09-24T09:06:09;5.67;;;4.53;;
18612;SDS011;9436;52.152;21.032;2022-09-24T09:08:47;5.73;;;3.93;;
18612;SDS011;9436;52.152;21.032;2022-09-24T09:11:20;4.27;;;3.50;;
18612;SDS011;9436;52.152;21.032;2022-09-24T09:13:51;4.83;;;3.77;;
18612;SDS011;9436;52.152;21.032;2022-09-24T09:16:23;3.90;;;3.60;;
18612;SDS011;9436;52.152;21.032;2022-09-24T09:18:54;3.60;;;2.73;;
18612;SDS011;9436;52.152;21.032;2022-09-24T09:21:26;4.27;;;3.57;;
18612;SDS011;9436;52.152;21.032;2022-09-24T09:24:01;3.67;;;3.30;;
18612;SDS011;9436;52.152;21.032;2022-09-24T09:26:29;3.50;;;3.20;;
18612;SDS011;9436;52.152;21.032;2022-09-24T09:28:57;4.57;;;4.00;;
18612;SDS011;9436;52.152;21.032;2022-09-24T09:31:27;3.60;;;3.30;;
18612;SDS011;9436;52.152;21.032;2022-09-24T09:34:08;2.90;;;2.53;;
18612;SDS011;9436;52.152;21.032;2022-09-24T09:36:56;2.67;;;2.47;;
18612;SDS011;9436;52.152;21.032;2022-09-24T09:39:37;2.60;;;2.40;;
18612;SDS011;9436;52.152;21.032;2022-09-24T09:42:27;3.17;;;2.40;;
18612;SDS011;9436;52.152;21.032;2022-09-24T09:44:58;2.87;;;2.17;;
18612;SDS011;9436;52.152;21.032;2022-09-24T09:47:30;2.90;;;2.20;;
18612;SDS011;9436;52.152;21.032;2022-09-24T09:50:09;2.50;;;2.30;;
18612;SDS011;9436;52.152;21.032;2022-09-24T09:52:40;2.33;;;2.13;;
18612;SDS011;9436;52.152;21.032;2022-09-24T09:55:18;3.53;;;2.20;;
18612;SDS011;9436;52.152;21.032;2022-09-24T09:57:47;2.67;;;1.97;;
18612;SDS011;9436;52.152;21.032;2022-09-24T10:00:22;2.03;;;1.80;;
18612;SDS011;9436;52.152;21.032;2022-09-24T10:02:51;1.90;;;1.80;;
18612;SDS011;9436;52.152;21.032;2022-09-24T10:05:21;2.33;;;2.00;;
18612;SDS011;9436;52.152;21.032;2022-09-24T10:07:52;3.10;;;2.40;;
18612;SDS011;9436;52.152;21.032;2022-09-24T10:10:23;2.53;;;2.33;;
18612;SDS011;9436;52.152;21.032;2022-09-24T10:12:52;2.63;;;2.43;;
18612;SDS011;9436;52.152;21.032;2022-09-24T10:15:21;3.10;;;2.43;;
18612;SDS011;9436;52.152;21.032;2022-09-24T10:17:50;3.17;;;2.90;;
18612;SDS011;9436;52.152;21.032;2022-09-24T10:20:20;4.40;;;2.70;;
18612;SDS011;9436;52.152;21.032;2022-09-24T10:22:52;2.70;;;2.50;;
18612;SDS011;9436;52.152;21.032;2022-09-24T10:25:24;2.67;;;2.03;;
18612;SDS011;9436;52.152;21.032;2022-09-24T10:27:54;2.27;;;2.07;;
18612;SDS011;9436;52.152;21.032;2022-09-24T10:30:49;2.67;;;2.13;;
18612;SDS011;9436;52.152;21.032;2022-09-24T10:33:18;2.27;;;2.03;;
18612;SDS011;9436;52.152;21.032;2022-09-24T10:35:45;3.17;;;2.00;;
18612;SDS011;9436;52.152;21.032;2022-09-24T10:38:16;1.90;;;1.80;;
18612;SDS011;9436;52.152;21.032;2022-09-24T10:40:46;2.57;;;1.90;;
18612;SDS011;9436;52.152;21.032;2022-09-24T10:43:15;2.30;;;2.00;;
18612;SDS011;9436;52.152;21.032;2022-09-24T10:45:56;1.70;;;1.60;;
18612;SDS011;9436;52.152;21.032;2022-09-24T10:48:47;1.50;;;1.40;;
18612;SDS011;9436;52.152;21.032;2022-09-24T10:51:25;2.70;;;1.30;;
18612;SDS011;9436;52.152;21.032;2022-09-24T10:54:03;2.63;;;1.00;;
18612;SDS011;9436;52.152;21.032;2022-09-24T10:56:46;2.30;;;1.60;;
18612;SDS011;9436;52.152;21.032;2022-09-24T11:02:22;2.37;;;1.73;;
18612;SDS011;9436;52.152;21.032;2022-09-24T11:05:07;2.80;;;1.73;;
18612;SDS011;9436;52.152;21.032;2022-09-24T11:07:46;2.30;;;1.60;;
18612;SDS011;9436;52.152;21.032;2022-09-24T11:10:35;2.27;;;1.70;;
18612;SDS011;9436;52.152;21.032;2022-09-24T11:13:24;1.73;;;1.57;;
18612;SDS011;9436;52.152;21.032;2022-09-24T11:19:15;2.20;;;1.80;;
18612;SDS011;9436;52.152;21.032;2022-09-24T11:21:56;3.17;;;1.57;;
18612;SDS011;9436;52.152;21.032;2022-09-24T11:24:46;1.60;;;1.50;;
18612;SDS011;9436;52.152;21.032;2022-09-24T11:27:32;2.77;;;1.70;;
18612;SDS011;9436;52.152;21.032;2022-09-24T11:30:11;2.93;;;1.90;;
18612;SDS011;9436;52.152;21.032;2022-09-24T11:32:44;2.27;;;1.53;;
18612;SDS011;9436;52.152;21.032;2022-09-24T11:35:31;2.47;;;1.60;;
18612;SDS011;9436;52.152;21.032;2022-09-24T11:38:12;2.30;;;1.50;;
18612;SDS011;9436;52.152;21.032;2022-09-24T11:40:55;2.00;;;1.40;;
18612;SDS011;9436;52.152;21.032;2022-09-24T11:46:57;1.50;;;1.40;;
18612;SDS011;9436;52.152;21.032;2022-09-24T11:49:40;1.20;;;1.10;;
18612;SDS011;9436;52.152;21.032;2022-09-24T11:52:19;1.40;;;1.30;;
18612;SDS011;9436;52.152;21.032;2022-09-24T11:54:55;2.13;;;1.23;;
18612;SDS011;9436;52.152;21.032;2022-09-24T11:57:26;1.13;;;1.10;;
18612;SDS011;9436;52.152;21.032;2022-09-24T11:59:57;1.30;;;1.20;;
18612;SDS011;9436;52.152;21.032;2022-09-24T12:02:33;1.23;;;1.17;;
18612;SDS011;9436;52.152;21.032;2022-09-24T12:05:04;1.20;;;1.10;;
18612;SDS011;9436;52.152;21.032;2022-09-24T12:07:41;1.50;;;1.40;;
18612;SDS011;9436;52.152;21.032;2022-09-24T12:10:24;1.63;;;1.40;;
18612;SDS011;9436;52.152;21.032;2022-09-24T12:12:58;1.60;;;1.50;;
18612;SDS011;9436;52.152;21.032;2022-09-24T12:15:34;2.60;;;1.70;;
18612;SDS011;9436;52.152;21.032;2022-09-24T12:18:13;3.93;;;1.40;;
18612;SDS011;9436;52.152;21.032;2022-09-24T12:20:45;1.80;;;1.50;;
18612;SDS011;9436;52.152;21.032;2022-09-24T12:23:15;1.73;;;1.27;;
18612;SDS011;9436;52.152;21.032;2022-09-24T12:25:48;1.77;;;1.50;;
18612;SDS011;9436;52.152;21.032;2022-09-24T12:28:18;2.43;;;1.60;;
18612;SDS011;9436;52.152;21.032;2022-09-24T12:31:00;1.53;;;1.43;;
18612;SDS011;9436;52.152;21.032;2022-09-24T12:33:51;1.77;;;1.60;;
18612;SDS011;9436;52.152;21.032;2022-09-24T12:36:22;1.67;;;1.57;;
18612;SDS011;9436;52.152;21.032;2022-09-24T12:39:00;3.37;;;1.60;;
18612;SDS011;9436;52.152;21.032;2022-09-24T12:41:31;1.60;;;1.50;;
18612;SDS011;9436;52.152;21.032;2022-09-24T12:44:02;1.63;;;1.53;;
18612;SDS011;9436;52.152;21.032;2022-09-24T12:46:34;2.53;;;1.47;;
18612;SDS011;9436;52.152;21.032;2022-09-24T12:49:13;1.60;;;1.50;;
18612;SDS011;9436;52.152;21.032;2022-09-24T12:51:49;1.80;;;1.70;;
18612;SDS011;9436;52.152;21.032;2022-09-24T12:54:21;2.10;;;1.70;;
18612;SDS011;9436;52.152;21.032;2022-09-24T12:57:03;1.70;;;1.60;;
18612;SDS011;9436;52.152;21.032;2022-09-24T12:59:44;3.10;;;1.80;;
18612;SDS011;9436;52.152;21.032;2022-09-24T13:02:14;3.50;;;1.87;;
18612;SDS011;9436;52.152;21.032;2022-09-24T13:04:50;2.20;;;2.00;;
18612;SDS011;9436;52.152;21.032;2022-09-24T13:07:41;2.03;;;1.83;;
18612;SDS011;9436;52.152;21.032;2022-09-24T13:10:23;2.10;;;1.90;;
18612;SDS011;9436;52.152;21.032;2022-09-24T13:12:52;1.63;;;1.50;;
18612;SDS011;9436;52.152;21.032;2022-09-24T13:15:22;2.43;;;1.60;;
18612;SDS011;9436;52.152;21.032;2022-09-24T13:18:03;1.90;;;1.80;;
18612;SDS011;9436;52.152;21.032;2022-09-24T13:20:34;1.50;;;1.40;;
18612;SDS011;9436;52.152;21.032;2022-09-24T13:23:13;2.70;;;1.70;;
18612;SDS011;9436;52.152;21.032;2022-09-24T13:25:56;2.17;;;1.50;;
18612;SDS011;9436;52.152;21.032;2022-09-24T13:28:26;1.60;;;1.50;;
18612;SDS011;9436;52.152;21.032;2022-09-24T13:30:55;2.17;;;1.70;;
18612;SDS011;9436;52.152;21.032;2022-09-24T13:33:28;2.23;;;1.80;;
18612;SDS011;9436;52.152;21.032;2022-09-24T13:36:09;1.90;;;1.80;;
18612;SDS011;9436;52.152;21.032;2022-09-24T13:38:40;1.70;;;1.60;;
18612;SDS011;9436;52.152;21.032;2022-09-24T13:41:18;2.00;;;1.80;;
18612;SDS011;9436;52.152;21.032;2022-09-24T13:43:50;1.80;;;1.57;;
18612;SDS011;9436;52.152;21.032;2022-09-24T13:46:21;1.70;;;1.60;;
18612;SDS011;9436;52.152;21.032;2022-09-24T13:48:50;1.70;;;1.60;;
18612;SDS011;9436;52.152;21.032;2022-09-24T13:51:22;2.10;;;1.50;;
18612;SDS011;9436;52.152;21.032;2022-09-24T13:53:54;2.40;;;1.27;;
18612;SDS011;9436;52.152;21.032;2022-09-24T13:56:24;1.50;;;1.40;;
18612;SDS011;9436;52.152;21.032;2022-09-24T13:58:51;1.50;;;1.40;;
18612;SDS011;9436;52.152;21.032;2022-09-24T14:01:28;1.50;;;1.40;;
18612;SDS011;9436;52.152;21.032;2022-09-24T14:04:04;1.77;;;1.40;;
18612;SDS011;9436;52.152;21.032;2022-09-24T14:06:42;1.47;;;1.37;;
18612;SDS011;9436;52.152;21.032;2022-09-24T14:09:20;1.87;;;1.30;;
18612;SDS011;9436;52.152;21.032;2022-09-24T14:11:52;1.57;;;1.30;;
18612;SDS011;9436;52.152;21.032;2022-09-24T14:14:21;1.60;;;1.50;;
18612;SDS011;9436;52.152;21.032;2022-09-24T14:16:50;1.70;;;1.50;;
18612;SDS011;9436;52.152;21.032;2022-09-24T14:19:19;1.83;;;1.60;;
18612;SDS011;9436;52.152;21.032;2022-09-24T14:21:48;2.17;;;1.53;;
18612;SDS011;9436;52.152;21.032;2022-09-24T14:24:19;1.70;;;1.60;;
18612;SDS011;9436;52.152;21.032;2022-09-24T14:26:50;1.67;;;1.57;;
18612;SDS011;9436;52.152;21.032;2022-09-24T14:29:21;1.70;;;1.60;;
18612;SDS011;9436;52.152;21.032;2022-09-24T14:31:51;2.30;;;1.70;;
18612;SDS011;9436;52.152;21.032;2022-09-24T14:34:24;1.50;;;1.40;;
18612;SDS011;9436;52.152;21.032;2022-09-24T14:36:57;2.43;;;1.53;;
18612;SDS011;9436;52.152;21.032;2022-09-24T14:39:35;1.97;;;1.60;;
18612;SDS011;9436;52.152;21.032;2022-09-24T14:42:06;1.53;;;1.43;;
18612;SDS011;9436;52.152;21.032;2022-09-24T14:44:36;1.70;;;1.60;;
18612;SDS011;9436;52.152;21.032;2022-09-24T14:47:18;1.93;;;1.83;;
18612;SDS011;9436;52.152;21.032;2022-09-24T14:49:52;1.80;;;1.70;;
18612;SDS011;9436;52.152;21.032;2022-09-24T14:52:25;1.80;;;1.70;;
18612;SDS011;9436;52.152;21.032;2022-09-24T14:55:02;2.57;;;1.93;;
18612;SDS011;9436;52.152;21.032;2022-09-24T14:57:39;2.77;;;1.73;;
18612;SDS011;9436;52.152;21.032;2022-09-24T15:00:20;2.70;;;1.70;;
18612;SDS011;9436;52.152;21.032;2022-09-24T15:02:49;2.60;;;1.60;;
18612;SDS011;9436;52.152;21.032;2022-09-24T15:05:22;2.10;;;1.90;;
18612;SDS011;9436;52.152;21.032;2022-09-24T15:07:51;1.83;;;1.67;;
18612;SDS011;9436;52.152;21.032;2022-09-24T15:10:33;1.60;;;1.50;;
18612;SDS011;9436;52.152;21.032;2022-09-24T15:13:10;2.53;;;2.03;;
18612;SDS011;9436;52.152;21.032;2022-09-24T15:15:38;2.33;;;2.13;;
18612;SDS011;9436;52.152;21.032;2022-09-24T15:18:07;2.87;;;1.83;;